TimeAKST,TemperatureF,Dew PointF,Humidity,Sea Level PressureIn,VisibilityMPH,Wind Direction,Wind SpeedMPH,Gust SpeedMPH,PrecipitationIn,Events,Conditions,WindDirDegrees,DateUTC
12:53 AM,1.9,-2.9,80,30.06,8.0,NE,3.5,-,N/A,Snow,Light Snow,50,2013-03-02 09:53:00
1:53 AM,-0.9,-6.0,79,30.07,10.0,Calm,Calm,-,N/A,Snow,Light Snow,0,2013-03-02 10:53:00
3:53 AM,-2.9,-7.1,82,30.08,10.0,Calm,Calm,-,N/A,,Scattered Clouds,0,2013-03-02 12:53:00
4:53 AM,-2.9,-8.0,79,30.09,10.0,Calm,Calm,-,N/A,,Scattered Clouds,0,2013-03-02 13:53:00
5:53 AM,-6.0,-11.0,79,30.10,10.0,Calm,Calm,-,N/A,,Mostly Cloudy,0,2013-03-02 14:53:00
6:53 AM,-6.0,-11.9,75,30.10,10.0,Calm,Calm,-,N/A,,Scattered Clouds,0,2013-03-02 15:53:00
7:53 AM,-5.1,-11.0,76,30.10,10.0,Calm,Calm,-,N/A,,Mostly Cloudy,0,2013-03-02 16:53:00
8:53 AM,-8.0,-13.0,79,30.10,10.0,Calm,Calm,-,N/A,,Partly Cloudy,0,2013-03-02 17:53:00
9:53 AM,-4.0,-8.0,83,30.12,10.0,Calm,Calm,-,N/A,,Partly Cloudy,0,2013-03-02 18:53:00
10:53 AM,-0.0,-4.0,83,30.12,10.0,Calm,Calm,-,N/A,,Mostly Cloudy,0,2013-03-02 19:53:00
11:53 AM,7.0,1.9,80,30.13,10.0,Calm,Calm,-,N/A,,Mostly Cloudy,0,2013-03-02 20:53:00
12:53 PM,10.9,5.0,77,30.14,10.0,Calm,Calm,-,N/A,,Mostly Cloudy,0,2013-03-02 21:53:00
1:53 PM,14.0,6.1,71,30.14,10.0,Calm,Calm,-,N/A,,Scattered Clouds,0,2013-03-02 22:53:00
2:53 PM,15.1,7.0,70,30.13,10.0,Calm,Calm,-,N/A,,Partly Cloudy,0,2013-03-02 23:53:00
3:53 PM,15.1,7.0,70,30.12,10.0,Calm,Calm,-,N/A,,Partly Cloudy,0,2013-03-03 00:53:00
4:53 PM,15.1,7.0,70,30.12,10.0,SE,3.5,-,N/A,,Partly Cloudy,140,2013-03-03 01:53:00
5:53 PM,12.9,6.1,74,30.13,10.0,SSW,3.5,-,N/A,,Partly Cloudy,200,2013-03-03 02:53:00
6:53 PM,3.0,1.0,91,30.14,10.0,Calm,Calm,-,N/A,,Partly Cloudy,0,2013-03-03 03:53:00
7:53 PM,-2.9,-7.1,82,30.16,10.0,Calm,Calm,-,N/A,,Partly Cloudy,0,2013-03-03 04:53:00
8:53 PM,-5.8,-7.6,92,30.12,10.0,ENE,3.5,-,N/A,,Partly Cloudy,60,2013-03-03 05:53:00
9:53 PM,-5.1,-9.0,83,30.18,10.0,Calm,Calm,-,N/A,,Partly Cloudy,0,2013-03-03 06:53:00
10:53 PM,-9.9,-16.1,74,30.19,10.0,Calm,Calm,-,N/A,,Partly Cloudy,0,2013-03-03 07:53:00
11:53 PM,-8.0,-13.0,79,30.20,10.0,Calm,Calm,-,N/A,,Partly Cloudy,0,2013-03-03 08:53:00